sensor_id;sensor_type;location;lat;lon;timestamp;temperature;humidity
43894;DHT22;29556;50.846;4.442;2022-11-02T00:02:16;14.70;75.80
43894;DHT22;29556;50.846;4.442;2022-11-02T00:04:42;14.70;75.70
43894;DHT22;29556;50.846;4.442;2022-11-02T00:07:08;14.60;75.80
43894;DHT22;29556;50.846;4.442;2022-11-02T00:09:33;14.60;75.90
43894;DHT22;29556;50.846;4.442;2022-11-02T00:11:59;14.60;76.30
43894;DHT22;29556;50.846;4.442;2022-11-02T00:14:24;14.60;76.40
43894;DHT22;29556;50.846;4.442;2022-11-02T00:16:50;14.60;76.60
43894;DHT22;29556;50.846;4.442;2022-11-02T00:19:16;14.60;77.10
43894;DHT22;29556;50.846;4.442;2022-11-02T00:21:42;14.60;77.50
43894;DHT22;29556;50.846;4.442;2022-11-02T00:24:09;14.60;78.30
43894;DHT22;29556;50.846;4.442;2022-11-02T00:26:36;14.60;78.80
43894;DHT22;29556;50.846;4.442;2022-11-02T00:29:03;14.60;79.40
43894;DHT22;29556;50.846;4.442;2022-11-02T00:31:29;14.50;79.50
43894;DHT22;29556;50.846;4.442;2022-11-02T00:33:55;14.50;79.80
43894;DHT22;29556;50.846;4.442;2022-11-02T00:36:20;14.60;79.80
43894;DHT22;29556;50.846;4.442;2022-11-02T00:38:49;14.50;80.10
43894;DHT22;29556;50.846;4.442;2022-11-02T00:41:17;14.60;80.20
43894;DHT22;29556;50.846;4.442;2022-11-02T00:43:43;14.60;79.80
43894;DHT22;29556;50.846;4.442;2022-11-02T00:46:08;14.50;79.50
43894;DHT22;29556;50.846;4.442;2022-11-02T00:48:34;14.60;79.70
43894;DHT22;29556;50.846;4.442;2022-11-02T00:51:00;14.60;79.30
43894;DHT22;29556;50.846;4.442;2022-11-02T00:53:26;14.70;78.80
43894;DHT22;29556;50.846;4.442;2022-11-02T00:55:52;14.50;78.80
43894;DHT22;29556;50.846;4.442;2022-11-02T00:58:19;14.60;79.00
43894;DHT22;29556;50.846;4.442;2022-11-02T01:00:45;14.40;78.90
43894;DHT22;29556;50.846;4.442;2022-11-02T01:03:11;14.40;79.90
43894;DHT22;29556;50.846;4.442;2022-11-02T01:05:36;14.30;78.30
43894;DHT22;29556;50.846;4.442;2022-11-02T01:08:03;14.30;78.50
43894;DHT22;29556;50.846;4.442;2022-11-02T01:10:28;14.40;78.30
43894;DHT22;29556;50.846;4.442;2022-11-02T01:12:54;14.30;77.90
43894;DHT22;29556;50.846;4.442;2022-11-02T01:15:20;14.30;78.10
43894;DHT22;29556;50.846;4.442;2022-11-02T01:17:46;14.30;78.50
43894;DHT22;29556;50.846;4.442;2022-11-02T01:20:11;14.40;78.20
43894;DHT22;29556;50.846;4.442;2022-11-02T01:22:37;14.30;77.70
43894;DHT22;29556;50.846;4.442;2022-11-02T01:25:03;14.30;78.10
43894;DHT22;29556;50.846;4.442;2022-11-02T01:27:29;14.30;78.00
43894;DHT22;29556;50.846;4.442;2022-11-02T01:29:55;14.30;78.50
43894;DHT22;29556;50.846;4.442;2022-11-02T01:32:21;14.30;77.10
43894;DHT22;29556;50.846;4.442;2022-11-02T01:34:47;14.40;77.00
43894;DHT22;29556;50.846;4.442;2022-11-02T01:37:12;14.20;76.30
43894;DHT22;29556;50.846;4.442;2022-11-02T01:39:38;14.10;76.60
43894;DHT22;29556;50.846;4.442;2022-11-02T01:42:15;14.10;76.70
43894;DHT22;29556;50.846;4.442;2022-11-02T01:44:41;14.10;76.10
43894;DHT22;29556;50.846;4.442;2022-11-02T01:49:44;14.00;76.40
43894;DHT22;29556;50.846;4.442;2022-11-02T01:52:16;14.10;76.10
43894;DHT22;29556;50.846;4.442;2022-11-02T01:54:48;14.10;76.00
43894;DHT22;29556;50.846;4.442;2022-11-02T01:57:19;14.10;76.00
43894;DHT22;29556;50.846;4.442;2022-11-02T01:59:51;14.10;76.20
43894;DHT22;29556;50.846;4.442;2022-11-02T02:02:21;14.10;76.30
43894;DHT22;29556;50.846;4.442;2022-11-02T02:04:50;14.10;76.10
43894;DHT22;29556;50.846;4.442;2022-11-02T02:07:17;14.20;76.50
43894;DHT22;29556;50.846;4.442;2022-11-02T02:09:43;14.20;76.10
43894;DHT22;29556;50.846;4.442;2022-11-02T02:12:11;14.20;77.00
43894;DHT22;29556;50.846;4.442;2022-11-02T02:14:36;14.20;76.10
43894;DHT22;29556;50.846;4.442;2022-11-02T02:30:49;14.30;75.90
43894;DHT22;29556;50.846;4.442;2022-11-02T02:35:59;14.20;75.80
43894;DHT22;29556;50.846;4.442;2022-11-02T02:43:59;14.10;76.40
43894;DHT22;29556;50.846;4.442;2022-11-02T02:46:32;14.00;76.10
43894;DHT22;29556;50.846;4.442;2022-11-02T02:49:02;14.00;76.70
43894;DHT22;29556;50.846;4.442;2022-11-02T02:51:31;14.00;76.60
43894;DHT22;29556;50.846;4.442;2022-11-02T02:56:31;14.00;76.50
43894;DHT22;29556;50.846;4.442;2022-11-02T02:59:06;14.10;76.50
43894;DHT22;29556;50.846;4.442;2022-11-02T03:01:33;14.00;76.60
43894;DHT22;29556;50.846;4.442;2022-11-02T03:04:03;14.10;76.60
43894;DHT22;29556;50.846;4.442;2022-11-02T03:06:29;14.10;75.80
43894;DHT22;29556;50.846;4.442;2022-11-02T03:14:18;14.00;76.70
43894;DHT22;29556;50.846;4.442;2022-11-02T03:19:37;14.00;76.30
43894;DHT22;29556;50.846;4.442;2022-11-02T03:22:11;14.10;76.20
43894;DHT22;29556;50.846;4.442;2022-11-02T03:27:56;14.00;75.90
43894;DHT22;29556;50.846;4.442;2022-11-02T03:30:28;13.90;76.10
43894;DHT22;29556;50.846;4.442;2022-11-02T03:33:03;14.00;76.40
43894;DHT22;29556;50.846;4.442;2022-11-02T03:35:32;14.00;76.30
43894;DHT22;29556;50.846;4.442;2022-11-02T03:38:12;13.90;76.20
43894;DHT22;29556;50.846;4.442;2022-11-02T03:40:42;13.90;76.60
43894;DHT22;29556;50.846;4.442;2022-11-02T03:43:09;14.00;76.80
43894;DHT22;29556;50.846;4.442;2022-11-02T03:45:43;13.90;76.30
43894;DHT22;29556;50.846;4.442;2022-11-02T03:48:12;13.90;76.70
43894;DHT22;29556;50.846;4.442;2022-11-02T03:50:44;14.00;76.70
43894;DHT22;29556;50.846;4.442;2022-11-02T03:53:27;13.90;76.60
43894;DHT22;29556;50.846;4.442;2022-11-02T03:55:58;13.90;76.90
43894;DHT22;29556;50.846;4.442;2022-11-02T03:58:27;13.80;76.40
43894;DHT22;29556;50.846;4.442;2022-11-02T04:00:58;13.90;76.70
43894;DHT22;29556;50.846;4.442;2022-11-02T04:03:24;13.90;77.90
43894;DHT22;29556;50.846;4.442;2022-11-02T04:05:50;13.90;76.90
43894;DHT22;29556;50.846;4.442;2022-11-02T04:08:21;13.80;77.10
43894;DHT22;29556;50.846;4.442;2022-11-02T04:10:50;13.80;77.10
43894;DHT22;29556;50.846;4.442;2022-11-02T04:13:34;13.70;77.20
43894;DHT22;29556;50.846;4.442;2022-11-02T04:16:19;13.70;77.30
43894;DHT22;29556;50.846;4.442;2022-11-02T04:18:46;13.70;77.60
43894;DHT22;29556;50.846;4.442;2022-11-02T04:21:30;13.70;77.90
43894;DHT22;29556;50.846;4.442;2022-11-02T04:23:56;13.60;77.80
43894;DHT22;29556;50.846;4.442;2022-11-02T04:26:41;13.60;78.40
43894;DHT22;29556;50.846;4.442;2022-11-02T04:29:07;13.60;78.60
43894;DHT22;29556;50.846;4.442;2022-11-02T04:31:32;13.50;78.60
43894;DHT22;29556;50.846;4.442;2022-11-02T04:33:58;13.50;78.50
43894;DHT22;29556;50.846;4.442;2022-11-02T04:36:25;13.50;78.20
43894;DHT22;29556;50.846;4.442;2022-11-02T04:38:51;13.60;78.30
43894;DHT22;29556;50.846;4.442;2022-11-02T04:41:18;13.60;77.90
43894;DHT22;29556;50.846;4.442;2022-11-02T04:44:03;13.50;78.00
43894;DHT22;29556;50.846;4.442;2022-11-02T04:46:32;13.60;79.00
43894;DHT22;29556;50.846;4.442;2022-11-02T04:48:58;13.50;79.00
43894;DHT22;29556;50.846;4.442;2022-11-02T04:51:26;13.50;78.70
43894;DHT22;29556;50.846;4.442;2022-11-02T04:53:53;13.40;78.50
43894;DHT22;29556;50.846;4.442;2022-11-02T04:56:19;13.30;79.20
43894;DHT22;29556;50.846;4.442;2022-11-02T04:58:55;13.30;79.30
43894;DHT22;29556;50.846;4.442;2022-11-02T05:01:22;13.40;79.50
43894;DHT22;29556;50.846;4.442;2022-11-02T05:03:50;13.30;79.70
43894;DHT22;29556;50.846;4.442;2022-11-02T05:06:17;13.30;79.70
43894;DHT22;29556;50.846;4.442;2022-11-02T05:08:43;13.40;79.80
43894;DHT22;29556;50.846;4.442;2022-11-02T05:11:09;13.30;80.20
43894;DHT22;29556;50.846;4.442;2022-11-02T05:13:37;13.40;80.10
43894;DHT22;29556;50.846;4.442;2022-11-02T05:16:03;13.30;80.10
43894;DHT22;29556;50.846;4.442;2022-11-02T05:18:29;13.20;80.50
43894;DHT22;29556;50.846;4.442;2022-11-02T05:20:59;13.30;80.70
43894;DHT22;29556;50.846;4.442;2022-11-02T05:23:25;13.40;80.60
43894;DHT22;29556;50.846;4.442;2022-11-02T05:26:12;13.40;80.70
43894;DHT22;29556;50.846;4.442;2022-11-02T05:28:37;13.30;80.80
43894;DHT22;29556;50.846;4.442;2022-11-02T05:31:03;13.20;81.00
43894;DHT22;29556;50.846;4.442;2022-11-02T05:33:30;13.30;81.10
43894;DHT22;29556;50.846;4.442;2022-11-02T05:35:58;13.30;81.30
43894;DHT22;29556;50.846;4.442;2022-11-02T05:38:24;13.30;81.90
43894;DHT22;29556;50.846;4.442;2022-11-02T05:40:57;13.20;81.00
43894;DHT22;29556;50.846;4.442;2022-11-02T05:43:24;13.20;81.40
43894;DHT22;29556;50.846;4.442;2022-11-02T05:45:54;13.20;81.70
43894;DHT22;29556;50.846;4.442;2022-11-02T05:48:21;13.10;81.60
43894;DHT22;29556;50.846;4.442;2022-11-02T05:50:47;13.20;81.80
43894;DHT22;29556;50.846;4.442;2022-11-02T05:53:12;13.10;81.50
43894;DHT22;29556;50.846;4.442;2022-11-02T05:55:39;13.10;81.70
43894;DHT22;29556;50.846;4.442;2022-11-02T05:58:05;13.10;81.90
43894;DHT22;29556;50.846;4.442;2022-11-02T06:00:30;13.10;81.40
43894;DHT22;29556;50.846;4.442;2022-11-02T06:02:57;13.10;81.50
43894;DHT22;29556;50.846;4.442;2022-11-02T06:05:23;13.10;81.60
43894;DHT22;29556;50.846;4.442;2022-11-02T06:07:49;13.10;81.70
43894;DHT22;29556;50.846;4.442;2022-11-02T06:10:15;13.20;81.90
43894;DHT22;29556;50.846;4.442;2022-11-02T06:12:40;13.20;81.60
43894;DHT22;29556;50.846;4.442;2022-11-02T06:15:06;13.30;81.90
43894;DHT22;29556;50.846;4.442;2022-11-02T06:17:39;13.10;81.80
43894;DHT22;29556;50.846;4.442;2022-11-02T06:20:06;13.10;82.00
43894;DHT22;29556;50.846;4.442;2022-11-02T06:22:38;13.10;81.90
43894;DHT22;29556;50.846;4.442;2022-11-02T06:25:04;13.10;82.30
43894;DHT22;29556;50.846;4.442;2022-11-02T06:27:30;13.00;82.90
43894;DHT22;29556;50.846;4.442;2022-11-02T06:29:56;13.00;82.60
43894;DHT22;29556;50.846;4.442;2022-11-02T06:32:22;13.00;82.70
43894;DHT22;29556;50.846;4.442;2022-11-02T06:34:47;13.00;82.90
43894;DHT22;29556;50.846;4.442;2022-11-02T06:37:13;13.00;83.10
43894;DHT22;29556;50.846;4.442;2022-11-02T06:39:38;12.90;83.10
43894;DHT22;29556;50.846;4.442;2022-11-02T06:42:04;12.80;83.60
43894;DHT22;29556;50.846;4.442;2022-11-02T06:44:30;12.90;83.70
43894;DHT22;29556;50.846;4.442;2022-11-02T06:46:56;12.90;83.80
43894;DHT22;29556;50.846;4.442;2022-11-02T06:49:22;12.80;83.70
43894;DHT22;29556;50.846;4.442;2022-11-02T06:51:50;12.90;84.60
43894;DHT22;29556;50.846;4.442;2022-11-02T06:54:15;12.80;83.90
43894;DHT22;29556;50.846;4.442;2022-11-02T06:56:41;12.80;84.00
43894;DHT22;29556;50.846;4.442;2022-11-02T06:59:07;12.80;84.10
43894;DHT22;29556;50.846;4.442;2022-11-02T07:01:33;12.80;83.90
43894;DHT22;29556;50.846;4.442;2022-11-02T07:04:00;12.70;84.30
43894;DHT22;29556;50.846;4.442;2022-11-02T07:06:26;12.80;84.60
43894;DHT22;29556;50.846;4.442;2022-11-02T07:08:51;12.70;84.60
43894;DHT22;29556;50.846;4.442;2022-11-02T07:11:17;12.70;84.60
43894;DHT22;29556;50.846;4.442;2022-11-02T07:13:43;12.80;84.60
43894;DHT22;29556;50.846;4.442;2022-11-02T07:16:08;12.90;84.50
43894;DHT22;29556;50.846;4.442;2022-11-02T07:18:34;12.90;84.00
43894;DHT22;29556;50.846;4.442;2022-11-02T07:21:00;12.90;83.90
43894;DHT22;29556;50.846;4.442;2022-11-02T07:23:27;12.90;84.00
43894;DHT22;29556;50.846;4.442;2022-11-02T07:25:52;12.80;83.80
43894;DHT22;29556;50.846;4.442;2022-11-02T07:28:19;12.90;84.10
43894;DHT22;29556;50.846;4.442;2022-11-02T07:30:44;12.80;83.80
43894;DHT22;29556;50.846;4.442;2022-11-02T07:33:10;13.00;84.00
43894;DHT22;29556;50.846;4.442;2022-11-02T07:35:36;13.00;83.70
43894;DHT22;29556;50.846;4.442;2022-11-02T07:38:04;13.00;83.80
43894;DHT22;29556;50.846;4.442;2022-11-02T07:40:31;13.00;83.60
43894;DHT22;29556;50.846;4.442;2022-11-02T07:42:58;13.00;84.10
43894;DHT22;29556;50.846;4.442;2022-11-02T07:45:24;13.00;83.50
43894;DHT22;29556;50.846;4.442;2022-11-02T07:47:50;13.00;84.20
43894;DHT22;29556;50.846;4.442;2022-11-02T07:50:18;13.00;83.70
43894;DHT22;29556;50.846;4.442;2022-11-02T07:52:50;13.00;83.70
43894;DHT22;29556;50.846;4.442;2022-11-02T07:55:18;12.80;83.70
43894;DHT22;29556;50.846;4.442;2022-11-02T07:57:55;12.90;83.80
43894;DHT22;29556;50.846;4.442;2022-11-02T08:00:21;12.90;83.90
43894;DHT22;29556;50.846;4.442;2022-11-02T08:02:47;12.90;83.90
43894;DHT22;29556;50.846;4.442;2022-11-02T08:05:12;12.90;84.70
43894;DHT22;29556;50.846;4.442;2022-11-02T08:07:38;12.90;84.50
43894;DHT22;29556;50.846;4.442;2022-11-02T08:10:04;12.90;83.90
43894;DHT22;29556;50.846;4.442;2022-11-02T08:12:30;12.90;84.50
43894;DHT22;29556;50.846;4.442;2022-11-02T08:14:55;13.00;84.60
43894;DHT22;29556;50.846;4.442;2022-11-02T08:17:22;13.10;84.10
43894;DHT22;29556;50.846;4.442;2022-11-02T08:19:48;13.20;83.60
43894;DHT22;29556;50.846;4.442;2022-11-02T08:22:14;13.10;83.70
43894;DHT22;29556;50.846;4.442;2022-11-02T08:24:39;13.20;83.40
43894;DHT22;29556;50.846;4.442;2022-11-02T08:27:05;13.20;84.40
43894;DHT22;29556;50.846;4.442;2022-11-02T08:29:31;13.20;83.20
43894;DHT22;29556;50.846;4.442;2022-11-02T08:31:57;13.20;83.40
43894;DHT22;29556;50.846;4.442;2022-11-02T08:34:22;13.20;83.50
43894;DHT22;29556;50.846;4.442;2022-11-02T08:36:48;13.20;83.40
43894;DHT22;29556;50.846;4.442;2022-11-02T08:39:13;13.20;83.60
43894;DHT22;29556;50.846;4.442;2022-11-02T08:41:39;13.30;83.30
43894;DHT22;29556;50.846;4.442;2022-11-02T08:44:05;13.50;82.90
43894;DHT22;29556;50.846;4.442;2022-11-02T08:46:30;13.50;82.60
43894;DHT22;29556;50.846;4.442;2022-11-02T08:48:56;13.60;82.30
43894;DHT22;29556;50.846;4.442;2022-11-02T08:51:22;13.60;81.80
43894;DHT22;29556;50.846;4.442;2022-11-02T08:53:48;13.60;81.80
43894;DHT22;29556;50.846;4.442;2022-11-02T08:56:15;13.80;81.60
43894;DHT22;29556;50.846;4.442;2022-11-02T08:58:40;13.70;81.10
43894;DHT22;29556;50.846;4.442;2022-11-02T09:01:06;13.60;80.80
43894;DHT22;29556;50.846;4.442;2022-11-02T09:03:31;13.60;81.20
43894;DHT22;29556;50.846;4.442;2022-11-02T09:05:59;13.60;81.40
43894;DHT22;29556;50.846;4.442;2022-11-02T09:08:25;13.70;81.30
43894;DHT22;29556;50.846;4.442;2022-11-02T09:10:57;13.60;81.20
43894;DHT22;29556;50.846;4.442;2022-11-02T09:13:24;13.70;81.40
43894;DHT22;29556;50.846;4.442;2022-11-02T09:16:10;13.70;81.20
43894;DHT22;29556;50.846;4.442;2022-11-02T09:18:36;13.70;81.00
43894;DHT22;29556;50.846;4.442;2022-11-02T09:21:03;13.90;81.30
43894;DHT22;29556;50.846;4.442;2022-11-02T09:23:29;13.70;80.80
43894;DHT22;29556;50.846;4.442;2022-11-02T09:26:06;13.70;80.90
43894;DHT22;29556;50.846;4.442;2022-11-02T09:28:32;13.80;80.60
43894;DHT22;29556;50.846;4.442;2022-11-02T09:30:58;13.80;80.50
43894;DHT22;29556;50.846;4.442;2022-11-02T09:33:24;13.80;80.50
43894;DHT22;29556;50.846;4.442;2022-11-02T09:35:50;13.80;80.20
43894;DHT22;29556;50.846;4.442;2022-11-02T09:38:20;13.80;80.60
43894;DHT22;29556;50.846;4.442;2022-11-02T09:46:30;14.00;80.60
43894;DHT22;29556;50.846;4.442;2022-11-02T09:49:05;14.10;80.10
43894;DHT22;29556;50.846;4.442;2022-11-02T09:51:37;14.20;79.80
43894;DHT22;29556;50.846;4.442;2022-11-02T09:54:05;14.10;79.00
43894;DHT22;29556;50.846;4.442;2022-11-02T09:56:34;14.10;79.60
43894;DHT22;29556;50.846;4.442;2022-11-02T09:59:03;14.10;79.00
43894;DHT22;29556;50.846;4.442;2022-11-02T10:01:32;14.10;79.10
43894;DHT22;29556;50.846;4.442;2022-11-02T10:04:20;14.20;79.70
43894;DHT22;29556;50.846;4.442;2022-11-02T10:07:03;14.30;79.40
43894;DHT22;29556;50.846;4.442;2022-11-02T10:12:14;14.20;78.40
43894;DHT22;29556;50.846;4.442;2022-11-02T10:14:56;14.10;78.60
43894;DHT22;29556;50.846;4.442;2022-11-02T10:17:26;14.10;78.80
43894;DHT22;29556;50.846;4.442;2022-11-02T10:19:56;14.20;78.60
43894;DHT22;29556;50.846;4.442;2022-11-02T10:22:38;14.20;78.90
43894;DHT22;29556;50.846;4.442;2022-11-02T10:25:06;14.30;78.50
43894;DHT22;29556;50.846;4.442;2022-11-02T10:27:37;14.30;78.80
43894;DHT22;29556;50.846;4.442;2022-11-02T10:30:18;14.40;78.80
43894;DHT22;29556;50.846;4.442;2022-11-02T10:32:47;14.50;78.50
43894;DHT22;29556;50.846;4.442;2022-11-02T10:41:17;14.70;77.90
43894;DHT22;29556;50.846;4.442;2022-11-02T10:46:44;14.70;76.80
43894;DHT22;29556;50.846;4.442;2022-11-02T10:51:57;14.80;76.20
43894;DHT22;29556;50.846;4.442;2022-11-02T10:54:25;14.80;76.50
43894;DHT22;29556;50.846;4.442;2022-11-02T10:56:50;14.80;76.70
43894;DHT22;29556;50.846;4.442;2022-11-02T10:59:20;14.90;76.80
43894;DHT22;29556;50.846;4.442;2022-11-02T11:04:24;14.90;76.10
43894;DHT22;29556;50.846;4.442;2022-11-02T11:06:50;15.10;76.10
43894;DHT22;29556;50.846;4.442;2022-11-02T11:09:27;15.00;76.00
43894;DHT22;29556;50.846;4.442;2022-11-02T11:11:55;15.00;75.90
43894;DHT22;29556;50.846;4.442;2022-11-02T11:14:23;15.10;76.10
43894;DHT22;29556;50.846;4.442;2022-11-02T11:16:57;15.20;75.80
43894;DHT22;29556;50.846;4.442;2022-11-02T11:19:40;15.40;75.10
43894;DHT22;29556;50.846;4.442;2022-11-02T11:22:38;15.30;75.10
43894;DHT22;29556;50.846;4.442;2022-11-02T11:25:25;15.40;74.40
43894;DHT22;29556;50.846;4.442;2022-11-02T11:27:58;15.40;74.20
43894;DHT22;29556;50.846;4.442;2022-11-02T11:30:30;15.50;73.80
43894;DHT22;29556;50.846;4.442;2022-11-02T11:32:56;15.60;74.50
43894;DHT22;29556;50.846;4.442;2022-11-02T11:35:24;15.60;74.00
43894;DHT22;29556;50.846;4.442;2022-11-02T11:37:56;15.70;73.30
43894;DHT22;29556;50.846;4.442;2022-11-02T11:40:22;15.70;73.50
43894;DHT22;29556;50.846;4.442;2022-11-02T11:42:51;15.60;71.60
43894;DHT22;29556;50.846;4.442;2022-11-02T11:45:23;15.60;71.90
43894;DHT22;29556;50.846;4.442;2022-11-02T11:47:55;15.50;71.20
43894;DHT22;29556;50.846;4.442;2022-11-02T11:50:22;15.50;72.00
43894;DHT22;29556;50.846;4.442;2022-11-02T11:55:54;15.30;70.80
43894;DHT22;29556;50.846;4.442;2022-11-02T12:03:52;15.40;71.60
43894;DHT22;29556;50.846;4.442;2022-11-02T12:12:10;15.80;71.70
43894;DHT22;29556;50.846;4.442;2022-11-02T12:26:07;16.10;67.20
43894;DHT22;29556;50.846;4.442;2022-11-02T12:31:55;16.00;67.90
43894;DHT22;29556;50.846;4.442;2022-11-02T12:34:32;16.00;66.60
43894;DHT22;29556;50.846;4.442;2022-11-02T12:42:42;15.90;65.40
43894;DHT22;29556;50.846;4.442;2022-11-02T12:55:31;16.00;65.80
43894;DHT22;29556;50.846;4.442;2022-11-02T12:58:02;16.00;65.90
43894;DHT22;29556;50.846;4.442;2022-11-02T13:00:30;16.10;66.70
43894;DHT22;29556;50.846;4.442;2022-11-02T13:05:42;16.20;67.10
43894;DHT22;29556;50.846;4.442;2022-11-02T13:08:17;16.30;65.50
43894;DHT22;29556;50.846;4.442;2022-11-02T13:10:47;16.30;64.80
43894;DHT22;29556;50.846;4.442;2022-11-02T13:13:17;16.20;64.00
43894;DHT22;29556;50.846;4.442;2022-11-02T13:15:46;16.20;62.50
43894;DHT22;29556;50.846;4.442;2022-11-02T13:18:26;16.10;62.10
43894;DHT22;29556;50.846;4.442;2022-11-02T13:21:00;16.10;63.50
43894;DHT22;29556;50.846;4.442;2022-11-02T13:26:06;16.10;63.80
43894;DHT22;29556;50.846;4.442;2022-11-02T13:28:45;16.10;64.00
43894;DHT22;29556;50.846;4.442;2022-11-02T13:31:43;16.00;63.50
43894;DHT22;29556;50.846;4.442;2022-11-02T13:34:18;16.00;64.50
43894;DHT22;29556;50.846;4.442;2022-11-02T13:36:44;16.00;64.00
43894;DHT22;29556;50.846;4.442;2022-11-02T13:39:33;16.00;62.70
43894;DHT22;29556;50.846;4.442;2022-11-02T13:50:43;15.70;62.80
43894;DHT22;29556;50.846;4.442;2022-11-02T13:53:22;15.80;62.90
43894;DHT22;29556;50.846;4.442;2022-11-02T13:55:59;15.80;63.10
43894;DHT22;29556;50.846;4.442;2022-11-02T13:58:32;15.70;62.40
43894;DHT22;29556;50.846;4.442;2022-11-02T14:01:01;15.70;63.10
43894;DHT22;29556;50.846;4.442;2022-11-02T14:03:32;15.70;63.40
43894;DHT22;29556;50.846;4.442;2022-11-02T14:06:09;15.70;62.60
43894;DHT22;29556;50.846;4.442;2022-11-02T14:16:43;15.80;63.40
43894;DHT22;29556;50.846;4.442;2022-11-02T14:19:29;15.80;62.70
43894;DHT22;29556;50.846;4.442;2022-11-02T14:45:59;15.80;62.80
43894;DHT22;29556;50.846;4.442;2022-11-02T14:48:46;15.70;62.10
43894;DHT22;29556;50.846;4.442;2022-11-02T14:54:17;15.60;61.90
43894;DHT22;29556;50.846;4.442;2022-11-02T14:59:36;15.70;62.50
43894;DHT22;29556;50.846;4.442;2022-11-02T15:04:33;15.80;62.80
43894;DHT22;29556;50.846;4.442;2022-11-02T15:07:02;15.70;61.80
43894;DHT22;29556;50.846;4.442;2022-11-02T15:10:00;15.60;62.00
43894;DHT22;29556;50.846;4.442;2022-11-02T15:12:28;15.70;62.70
43894;DHT22;29556;50.846;4.442;2022-11-02T15:15:04;15.80;63.70
43894;DHT22;29556;50.846;4.442;2022-11-02T15:27:39;15.70;63.40
43894;DHT22;29556;50.846;4.442;2022-11-02T15:30:08;15.70;63.60
43894;DHT22;29556;50.846;4.442;2022-11-02T15:32:39;15.70;64.10
43894;DHT22;29556;50.846;4.442;2022-11-02T15:35:21;15.60;63.50
43894;DHT22;29556;50.846;4.442;2022-11-02T15:37:55;15.60;64.50
43894;DHT22;29556;50.846;4.442;2022-11-02T15:40:26;15.60;65.00
43894;DHT22;29556;50.846;4.442;2022-11-02T15:43:12;15.70;65.20
43894;DHT22;29556;50.846;4.442;2022-11-02T15:46:06;15.60;65.80
43894;DHT22;29556;50.846;4.442;2022-11-02T15:48:55;15.60;65.90
43894;DHT22;29556;50.846;4.442;2022-11-02T16:00:13;15.20;65.00
43894;DHT22;29556;50.846;4.442;2022-11-02T16:02:50;15.20;65.40
43894;DHT22;29556;50.846;4.442;2022-11-02T16:05:22;15.00;64.30
43894;DHT22;29556;50.846;4.442;2022-11-02T16:08:24;15.10;66.20
43894;DHT22;29556;50.846;4.442;2022-11-02T16:10:50;15.00;65.40
43894;DHT22;29556;50.846;4.442;2022-11-02T16:13:27;15.00;66.10
43894;DHT22;29556;50.846;4.442;2022-11-02T16:16:03;15.00;66.00
43894;DHT22;29556;50.846;4.442;2022-11-02T16:18:38;15.00;65.90
43894;DHT22;29556;50.846;4.442;2022-11-02T16:21:05;14.90;66.20
43894;DHT22;29556;50.846;4.442;2022-11-02T16:23:34;14.90;66.30
43894;DHT22;29556;50.846;4.442;2022-11-02T16:26:02;14.80;66.50
43894;DHT22;29556;50.846;4.442;2022-11-02T16:28:30;14.90;67.20
43894;DHT22;29556;50.846;4.442;2022-11-02T16:31:00;15.00;67.80
43894;DHT22;29556;50.846;4.442;2022-11-02T16:33:30;14.80;67.40
43894;DHT22;29556;50.846;4.442;2022-11-02T16:35:56;14.70;67.50
43894;DHT22;29556;50.846;4.442;2022-11-02T16:38:22;14.70;67.90
43894;DHT22;29556;50.846;4.442;2022-11-02T16:40:48;14.80;68.30
43894;DHT22;29556;50.846;4.442;2022-11-02T16:43:14;14.70;68.30
43894;DHT22;29556;50.846;4.442;2022-11-02T16:45:41;14.70;68.20
43894;DHT22;29556;50.846;4.442;2022-11-02T16:48:24;14.60;68.40
43894;DHT22;29556;50.846;4.442;2022-11-02T16:51:02;14.60;68.30
43894;DHT22;29556;50.846;4.442;2022-11-02T16:53:31;14.50;67.90
43894;DHT22;29556;50.846;4.442;2022-11-02T16:56:11;14.50;67.90
43894;DHT22;29556;50.846;4.442;2022-11-02T16:58:44;14.40;68.50
43894;DHT22;29556;50.846;4.442;2022-11-02T17:01:20;14.50;68.80
43894;DHT22;29556;50.846;4.442;2022-11-02T17:03:48;14.40;69.00
43894;DHT22;29556;50.846;4.442;2022-11-02T17:06:15;14.30;69.30
43894;DHT22;29556;50.846;4.442;2022-11-02T17:08:50;14.40;68.90
43894;DHT22;29556;50.846;4.442;2022-11-02T17:11:17;14.30;69.60
43894;DHT22;29556;50.846;4.442;2022-11-02T17:14:02;14.30;69.40
43894;DHT22;29556;50.846;4.442;2022-11-02T17:16:34;14.30;69.60
43894;DHT22;29556;50.846;4.442;2022-11-02T17:19:02;14.20;69.50
43894;DHT22;29556;50.846;4.442;2022-11-02T17:21:28;14.20;69.80
43894;DHT22;29556;50.846;4.442;2022-11-02T17:23:56;14.30;70.00
43894;DHT22;29556;50.846;4.442;2022-11-02T17:26:30;14.20;69.80
43894;DHT22;29556;50.846;4.442;2022-11-02T17:29:01;14.30;70.20
43894;DHT22;29556;50.846;4.442;2022-11-02T17:31:33;14.20;69.70
43894;DHT22;29556;50.846;4.442;2022-11-02T17:34:17;14.30;70.20
43894;DHT22;29556;50.846;4.442;2022-11-02T17:36:47;14.20;70.50
43894;DHT22;29556;50.846;4.442;2022-11-02T17:39:16;14.30;72.20
43894;DHT22;29556;50.846;4.442;2022-11-02T17:41:43;14.30;70.70
43894;DHT22;29556;50.846;4.442;2022-11-02T17:44:30;14.30;71.60
43894;DHT22;29556;50.846;4.442;2022-11-02T17:46:57;14.30;70.70
43894;DHT22;29556;50.846;4.442;2022-11-02T17:49:23;14.30;70.90
43894;DHT22;29556;50.846;4.442;2022-11-02T17:51:49;14.40;70.60
43894;DHT22;29556;50.846;4.442;2022-11-02T17:54:14;14.40;70.60
43894;DHT22;29556;50.846;4.442;2022-11-02T17:56:41;14.30;70.40
43894;DHT22;29556;50.846;4.442;2022-11-02T17:59:07;14.30;70.40
43894;DHT22;29556;50.846;4.442;2022-11-02T18:01:33;14.30;70.50
43894;DHT22;29556;50.846;4.442;2022-11-02T18:03:58;14.30;70.60
43894;DHT22;29556;50.846;4.442;2022-11-02T18:06:24;14.40;70.70
43894;DHT22;29556;50.846;4.442;2022-11-02T18:08:49;14.40;70.80
43894;DHT22;29556;50.846;4.442;2022-11-02T18:11:33;14.30;71.30
43894;DHT22;29556;50.846;4.442;2022-11-02T18:14:00;14.30;71.20
43894;DHT22;29556;50.846;4.442;2022-11-02T18:16:25;14.30;71.10
43894;DHT22;29556;50.846;4.442;2022-11-02T18:18:52;14.30;71.10
43894;DHT22;29556;50.846;4.442;2022-11-02T18:21:17;14.30;71.40
43894;DHT22;29556;50.846;4.442;2022-11-02T18:23:43;14.30;71.50
43894;DHT22;29556;50.846;4.442;2022-11-02T18:26:13;14.30;71.50
43894;DHT22;29556;50.846;4.442;2022-11-02T18:28:38;14.20;71.40
43894;DHT22;29556;50.846;4.442;2022-11-02T18:31:10;14.30;71.80
43894;DHT22;29556;50.846;4.442;2022-11-02T18:33:36;14.30;71.80
43894;DHT22;29556;50.846;4.442;2022-11-02T18:36:07;14.30;71.80
43894;DHT22;29556;50.846;4.442;2022-11-02T18:38:33;14.30;72.20
43894;DHT22;29556;50.846;4.442;2022-11-02T18:41:06;14.30;72.00
43894;DHT22;29556;50.846;4.442;2022-11-02T18:43:53;14.20;71.80
43894;DHT22;29556;50.846;4.442;2022-11-02T18:46:19;14.20;72.10